createdAt,value
2018-11-12T00:00:17.169Z,12.40
2018-11-12T00:02:46.159Z,12.40
2018-11-12T00:05:13.364Z,12.40
2018-11-12T00:07:40.665Z,12.40
2018-11-12T00:10:08.220Z,12.40
2018-11-12T00:12:42.333Z,12.30
2018-11-12T00:15:10.516Z,12.30
2018-11-12T00:17:37.691Z,12.30
2018-11-12T00:20:05.740Z,12.40
2018-11-12T00:22:32.908Z,12.50
2018-11-12T00:25:00.161Z,12.50
2018-11-12T00:27:34.185Z,12.50
2018-11-12T00:30:01.351Z,12.40
2018-11-12T00:32:28.524Z,12.30
2018-11-12T00:34:55.681Z,12.20
2018-11-12T00:37:22.860Z,12.10
2018-11-12T00:39:50.012Z,12.10
2018-11-12T00:42:17.272Z,12.00
2018-11-12T00:44:44.430Z,12.10
2018-11-12T00:47:11.588Z,12.10
2018-11-12T00:49:38.753Z,12.30
2018-11-12T00:52:06.570Z,12.40
2018-11-12T00:54:33.723Z,12.50
2018-11-12T00:57:00.980Z,12.80
2018-11-12T00:59:28.120Z,12.70
2018-11-12T01:01:55.301Z,12.60
2018-11-12T01:04:22.493Z,12.50
2018-11-12T01:06:49.693Z,12.50
2018-11-12T01:09:16.843Z,12.40
2018-11-12T01:11:44.001Z,12.40
2018-11-12T01:14:11.159Z,12.20
2018-11-12T01:16:38.331Z,12.10
2018-11-12T01:19:05.738Z,12.00
2018-11-12T01:21:32.888Z,11.90
2018-11-12T01:24:00.059Z,11.90
2018-11-12T01:26:27.249Z,11.90
2018-11-12T01:28:54.412Z,12.10
2018-11-12T01:31:21.558Z,12.10
2018-11-12T01:33:48.728Z,12.10
2018-11-12T01:36:15.863Z,12.20
2018-11-12T01:38:43.087Z,12.20
2018-11-12T01:41:10.331Z,12.20
2018-11-12T01:43:37.520Z,12.20
2018-11-12T01:46:04.735Z,12.20
2018-11-12T01:48:31.886Z,12.20
2018-11-12T01:50:59.026Z,12.20
2018-11-12T01:53:26.290Z,12.20
2018-11-12T01:55:53.435Z,12.20
2018-11-12T01:58:20.588Z,12.20
2018-11-12T02:00:47.780Z,12.20
2018-11-12T02:03:14.958Z,12.30
2018-11-12T02:05:42.261Z,12.40
2018-11-12T02:08:09.439Z,12.40
2018-11-12T02:10:36.611Z,12.40
2018-11-12T02:13:04.239Z,12.40
2018-11-12T02:15:31.448Z,12.40
2018-11-12T02:17:58.654Z,12.30
2018-11-12T02:20:32.462Z,12.10
2018-11-12T02:22:59.667Z,12.20
2018-11-12T02:25:26.903Z,12.20
2018-11-12T02:27:54.055Z,12.30
2018-11-12T02:30:27.223Z,12.40
2018-11-12T02:32:54.275Z,12.50
2018-11-12T02:35:21.424Z,12.70
2018-11-12T02:37:48.577Z,12.80
2018-11-12T02:40:15.748Z,12.80
2018-11-12T02:42:43.285Z,12.80
2018-11-12T02:45:11.523Z,12.80
2018-11-12T02:47:39.135Z,12.80
2018-11-12T02:50:07.489Z,12.90
2018-11-12T02:52:34.647Z,12.90
2018-11-12T02:55:01.855Z,12.90
2018-11-12T02:57:29.065Z,13.00
2018-11-12T02:59:56.268Z,13.00
2018-11-12T03:02:23.443Z,13.10
2018-11-12T03:04:50.608Z,13.10
2018-11-12T03:07:17.810Z,13.20
2018-11-12T03:09:44.947Z,13.20
2018-11-12T03:12:12.162Z,13.20
2018-11-12T03:14:39.525Z,13.10
2018-11-12T03:17:06.686Z,13.20
2018-11-12T03:19:33.910Z,13.20
2018-11-12T03:22:01.075Z,13.30
2018-11-12T03:24:28.344Z,13.30
2018-11-12T03:26:55.522Z,13.20
2018-11-12T03:29:22.670Z,13.30
2018-11-12T03:31:49.923Z,13.30
2018-11-12T03:34:17.076Z,13.20
2018-11-12T03:36:44.307Z,13.20
2018-11-12T03:39:11.489Z,13.20
2018-11-12T03:41:38.680Z,13.10
2018-11-12T03:44:06.030Z,13.10
2018-11-12T03:46:33.188Z,13.10
2018-11-12T03:49:00.363Z,13.10
2018-11-12T03:51:27.509Z,13.00
2018-11-12T03:53:54.667Z,13.00
2018-11-12T03:56:22.003Z,13.00
2018-11-12T03:58:49.159Z,13.00
2018-11-12T04:01:16.348Z,13.00
2018-11-12T04:03:43.528Z,12.90
2018-11-12T04:06:10.667Z,12.90
2018-11-12T04:08:37.841Z,12.90
2018-11-12T04:11:05.003Z,12.90
2018-11-12T04:13:32.160Z,12.90
2018-11-12T04:15:59.337Z,12.80
2018-11-12T04:18:26.515Z,12.90
2018-11-12T04:20:53.673Z,12.80
2018-11-12T04:23:20.836Z,12.80
2018-11-12T04:25:47.995Z,12.90
2018-11-12T04:28:15.163Z,12.90
2018-11-12T04:30:42.324Z,12.90
2018-11-12T04:33:09.517Z,13.00
2018-11-12T04:35:36.663Z,13.10
2018-11-12T04:38:03.923Z,13.20
2018-11-12T04:40:31.080Z,13.20
2018-11-12T04:42:58.276Z,13.20
2018-11-12T04:45:25.961Z,13.20
2018-11-12T04:47:53.592Z,13.10
2018-11-12T04:50:22.007Z,13.10
2018-11-12T04:52:49.415Z,13.10
2018-11-12T04:55:17.847Z,13.10
2018-11-12T04:57:45.230Z,13.10
2018-11-12T05:00:15.392Z,13.00
2018-11-12T05:02:42.563Z,13.10
2018-11-12T05:05:11.520Z,13.10
2018-11-12T05:07:38.740Z,13.10
2018-11-12T05:10:07.804Z,13.00
2018-11-12T05:12:35.127Z,13.10
2018-11-12T05:15:02.511Z,13.10
2018-11-12T05:17:29.672Z,13.10
2018-11-12T05:19:56.834Z,13.00
2018-11-12T05:22:24.072Z,13.00
2018-11-12T05:24:51.252Z,13.00
2018-11-12T05:27:18.399Z,13.00
2018-11-12T05:29:45.555Z,13.00
2018-11-12T05:32:12.695Z,13.00
2018-11-12T05:34:39.858Z,12.90
2018-11-12T05:37:07.285Z,13.00
2018-11-12T05:39:34.519Z,13.00
2018-11-12T05:42:08.367Z,12.90
2018-11-12T05:44:35.527Z,12.90
2018-11-12T05:47:02.664Z,12.90
2018-11-12T05:49:29.867Z,12.90
2018-11-12T05:51:57.006Z,12.90
2018-11-12T05:56:58.143Z,12.90
2018-11-12T05:59:25.333Z,12.90
2018-11-12T06:01:52.762Z,12.90
2018-11-12T06:04:19.924Z,12.80
2018-11-12T06:06:47.110Z,12.80
2018-11-12T06:09:14.280Z,12.80
2018-11-12T06:11:41.469Z,12.90
2018-11-12T06:14:08.669Z,12.90
2018-11-12T06:16:35.855Z,13.00
2018-11-12T06:19:03.041Z,12.90
2018-11-12T06:21:30.213Z,12.90
2018-11-12T06:23:57.408Z,12.80
2018-11-12T06:26:24.791Z,12.80
2018-11-12T06:28:51.989Z,12.90
2018-11-12T06:31:19.232Z,12.90
2018-11-12T06:33:46.328Z,12.90
2018-11-12T06:36:13.488Z,12.90
2018-11-12T06:38:40.653Z,13.00
2018-11-12T06:41:07.979Z,13.00
2018-11-12T06:43:35.160Z,13.00
2018-11-12T06:46:02.342Z,13.10
2018-11-12T06:48:30.599Z,13.20
2018-11-12T06:50:57.869Z,13.20
2018-11-12T06:53:25.765Z,13.30
2018-11-12T06:55:52.860Z,13.30
2018-11-12T06:58:20.121Z,13.20
2018-11-12T07:00:47.429Z,13.10
2018-11-12T07:03:14.603Z,13.10
2018-11-12T07:05:41.888Z,13.10
2018-11-12T07:08:09.135Z,13.10
2018-11-12T07:10:36.389Z,13.20
2018-11-12T07:13:03.984Z,13.20
2018-11-12T07:15:31.121Z,13.30
2018-11-12T07:17:58.326Z,13.30
2018-11-12T07:20:26.384Z,13.30
2018-11-12T07:22:53.803Z,13.40
2018-11-12T07:25:22.723Z,13.40
2018-11-12T07:27:49.803Z,13.40
2018-11-12T07:31:21.244Z,13.40
2018-11-12T07:33:48.339Z,13.30
2018-11-12T07:36:15.498Z,13.40
2018-11-12T07:38:42.667Z,13.40
2018-11-12T07:41:09.884Z,13.40
2018-11-12T07:43:37.029Z,13.40
2018-11-12T07:46:04.421Z,13.40
2018-11-12T07:48:31.597Z,13.50
2018-11-12T07:50:58.739Z,13.50
2018-11-12T07:53:25.882Z,13.50
2018-11-12T07:55:53.202Z,13.60
2018-11-12T07:58:20.358Z,13.50
2018-11-12T08:00:47.591Z,13.60
2018-11-12T08:03:14.796Z,13.70
2018-11-12T08:05:43.056Z,13.60
2018-11-12T08:08:10.373Z,13.70
2018-11-12T08:10:37.530Z,13.70
2018-11-12T08:13:05.162Z,13.70
2018-11-12T08:15:32.367Z,13.60
2018-11-12T08:17:59.602Z,13.60
2018-11-12T08:20:27.120Z,13.70
2018-11-12T08:22:54.263Z,13.80
2018-11-12T08:25:21.475Z,13.70
2018-11-12T08:27:49.071Z,13.80
2018-11-12T08:30:18.529Z,13.80
2018-11-12T08:32:46.804Z,13.90
2018-11-12T08:35:14.323Z,13.80
2018-11-12T08:37:41.503Z,13.80
2018-11-12T08:40:11.104Z,13.90
2018-11-12T08:42:38.220Z,13.90
2018-11-12T08:45:06.615Z,13.90
2018-11-12T08:47:34.567Z,13.90
2018-11-12T08:50:04.785Z,13.90
2018-11-12T08:52:31.916Z,13.90
2018-11-12T08:54:59.239Z,13.90
2018-11-12T08:57:26.273Z,13.90
2018-11-12T08:59:53.435Z,13.90
2018-11-12T09:02:20.596Z,14.00
2018-11-12T09:04:54.529Z,14.00
2018-11-12T09:07:21.743Z,14.10
2018-11-12T09:09:48.890Z,14.10
2018-11-12T09:12:22.759Z,14.10
2018-11-12T09:14:49.908Z,14.20
2018-11-12T09:17:17.097Z,14.20
2018-11-12T09:19:44.267Z,14.20
2018-11-12T09:22:11.453Z,14.20
2018-11-12T09:24:38.604Z,14.10
2018-11-12T09:27:05.835Z,14.20
2018-11-12T09:29:33.100Z,14.10
2018-11-12T09:32:00.243Z,14.10
2018-11-12T09:34:27.396Z,14.30
2018-11-12T09:36:54.683Z,14.40
2018-11-12T09:39:21.757Z,14.30
2018-11-12T09:41:49.032Z,14.40
2018-11-12T09:44:16.206Z,14.30
2018-11-12T09:46:43.351Z,14.30
2018-11-12T09:49:10.569Z,14.40
2018-11-12T09:51:37.650Z,14.40
2018-11-12T09:54:05.115Z,14.40
2018-11-12T09:56:32.244Z,14.40
2018-11-12T09:58:59.404Z,14.40
2018-11-12T10:01:27.027Z,14.40
2018-11-12T10:03:54.746Z,14.40
2018-11-12T10:06:22.208Z,14.60
2018-11-12T10:08:50.811Z,14.60
2018-11-12T10:11:17.766Z,14.60
2018-11-12T10:13:44.979Z,14.70
2018-11-12T10:16:13.910Z,14.70
2018-11-12T10:18:37.043Z,14.60
2018-11-12T10:21:04.591Z,14.60
2018-11-12T10:23:31.735Z,14.70
2018-11-12T10:25:59.071Z,14.80
2018-11-12T10:28:26.221Z,14.90
2018-11-12T10:30:53.389Z,14.80
2018-11-12T10:33:20.563Z,14.90
2018-11-12T10:35:47.719Z,15.00
2018-11-12T10:38:14.880Z,15.00
2018-11-12T10:40:42.062Z,15.00
2018-11-12T10:43:09.327Z,15.00
2018-11-12T10:45:36.489Z,15.00
2018-11-12T10:48:04.145Z,15.00
2018-11-12T10:50:31.248Z,15.00
2018-11-12T10:52:58.403Z,15.00
2018-11-12T10:55:25.934Z,15.00
2018-11-12T10:57:53.251Z,15.00
2018-11-12T11:00:29.367Z,15.00
2018-11-12T11:03:04.173Z,15.00
2018-11-12T11:05:31.642Z,15.00
2018-11-12T11:07:58.803Z,15.10
2018-11-12T11:10:26.870Z,15.00
2018-11-12T11:12:57.670Z,15.00
2018-11-12T11:15:24.839Z,15.10
2018-11-12T11:17:52.019Z,15.10
2018-11-12T11:20:19.185Z,15.00
2018-11-12T11:22:46.412Z,15.10
2018-11-12T11:25:13.564Z,15.10
2018-11-12T11:27:41.130Z,15.10
2018-11-12T11:30:10.519Z,15.20
2018-11-12T11:35:12.817Z,15.10
2018-11-12T11:37:40.062Z,15.00
2018-11-12T11:40:20.528Z,15.10
2018-11-12T11:42:47.824Z,15.00
2018-11-12T11:45:15.850Z,15.10
2018-11-12T11:47:43.851Z,15.00
2018-11-12T11:50:12.680Z,15.00
2018-11-12T11:52:39.766Z,14.90
2018-11-12T11:55:08.371Z,15.00
2018-11-12T11:57:35.749Z,14.90
2018-11-12T12:00:04.775Z,14.90
2018-11-12T12:02:31.927Z,14.90
2018-11-12T12:04:59.075Z,14.80
2018-11-12T12:07:26.227Z,14.80
2018-11-12T12:09:53.387Z,14.90
2018-11-12T12:12:20.583Z,14.80
2018-11-12T12:14:47.774Z,14.90
2018-11-12T12:17:14.939Z,14.80
2018-11-12T12:19:45.121Z,14.80
2018-11-12T12:22:12.262Z,14.90
2018-11-12T12:24:39.530Z,15.00
2018-11-12T12:27:06.589Z,14.90
2018-11-12T12:29:33.731Z,15.00
2018-11-12T12:32:00.957Z,15.10
2018-11-12T12:34:28.111Z,15.10
2018-11-12T12:36:55.328Z,15.20
2018-11-12T12:39:22.433Z,15.30
2018-11-12T12:41:49.584Z,15.30
2018-11-12T12:44:16.842Z,15.30
2018-11-12T12:46:43.923Z,15.40
2018-11-12T12:49:11.106Z,15.70
2018-11-12T12:51:38.339Z,15.90
2018-11-12T12:54:05.492Z,16.00
2018-11-12T12:56:32.718Z,16.20
2018-11-12T12:58:59.814Z,16.20
2018-11-12T13:01:27.080Z,16.10
2018-11-12T13:03:54.211Z,16.10
2018-11-12T13:06:21.418Z,16.10
2018-11-12T13:08:48.530Z,16.10
2018-11-12T13:11:15.686Z,16.10
2018-11-12T13:13:43.485Z,16.10
2018-11-12T13:16:10.663Z,16.20
2018-11-12T13:18:37.957Z,16.20
2018-11-12T13:21:05.461Z,16.10
2018-11-12T13:23:32.628Z,16.00
2018-11-12T13:25:59.830Z,15.90
2018-11-12T13:28:27.008Z,16.00
2018-11-12T13:30:54.187Z,16.00
2018-11-12T13:33:21.375Z,16.00
2018-11-12T13:35:48.519Z,16.10
2018-11-12T13:38:15.677Z,16.10
2018-11-12T13:40:42.858Z,16.00
2018-11-12T13:43:09.991Z,15.90
2018-11-12T13:45:37.142Z,15.90
2018-11-12T13:48:04.601Z,15.90
2018-11-12T13:50:31.779Z,16.00
2018-11-12T13:53:00.163Z,16.00
2018-11-12T13:55:27.292Z,16.00
2018-11-12T13:57:54.457Z,16.00
2018-11-12T14:02:57.684Z,16.10
2018-11-12T14:05:25.752Z,16.20
2018-11-12T14:07:52.887Z,16.20
2018-11-12T14:10:21.416Z,16.20
2018-11-12T14:12:49.230Z,16.20
2018-11-12T14:15:18.727Z,16.20
2018-11-12T14:17:46.308Z,16.30
2018-11-12T14:20:13.518Z,16.20
2018-11-12T14:22:40.644Z,16.10
2018-11-12T14:25:09.496Z,16.00
2018-11-12T14:27:36.696Z,16.00
2018-11-12T14:30:04.720Z,15.90
2018-11-12T14:32:32.184Z,15.90
2018-11-12T14:34:59.406Z,15.90
2018-11-12T14:37:26.635Z,15.90
2018-11-12T14:39:53.780Z,15.90
2018-11-12T14:42:20.972Z,15.80
2018-11-12T14:44:48.140Z,15.80
2018-11-12T14:47:15.415Z,15.80
2018-11-12T14:49:42.558Z,15.80
2018-11-12T14:52:09.827Z,15.70
2018-11-12T14:54:36.980Z,15.70
2018-11-12T14:57:04.582Z,15.60
2018-11-12T14:59:31.741Z,15.50
2018-11-12T15:01:58.913Z,15.60
2018-11-12T15:04:26.056Z,15.50
2018-11-12T15:06:53.244Z,15.40
2018-11-12T15:09:20.467Z,15.40
2018-11-12T15:11:47.620Z,15.40
2018-11-12T15:14:14.780Z,15.30
2018-11-12T15:16:41.956Z,15.30
2018-11-12T15:19:09.112Z,15.20
2018-11-12T15:21:36.415Z,15.20
2018-11-12T15:24:03.769Z,15.10
2018-11-12T15:26:30.943Z,15.00
2018-11-12T15:28:58.883Z,15.00
2018-11-12T15:31:26.071Z,15.00
2018-11-12T15:33:53.303Z,14.90
2018-11-12T15:36:22.080Z,14.90
2018-11-12T15:38:49.235Z,14.90
2018-11-12T15:41:16.403Z,14.90
2018-11-12T15:43:43.575Z,14.90
2018-11-12T15:46:10.720Z,14.90
2018-11-12T15:48:37.880Z,15.00
2018-11-12T15:51:05.390Z,15.00
2018-11-12T15:53:32.568Z,15.00
2018-11-12T15:56:31.110Z,14.90
2018-11-12T15:58:58.343Z,14.90
2018-11-12T16:01:25.608Z,14.90
2018-11-12T16:03:52.857Z,14.90
2018-11-12T16:06:20.104Z,14.90
2018-11-12T16:08:47.351Z,14.90
2018-11-12T16:11:14.595Z,14.80
2018-11-12T16:13:41.875Z,14.90
2018-11-12T16:16:09.134Z,14.80
2018-11-12T16:18:36.525Z,14.70
2018-11-12T16:21:03.761Z,14.80
2018-11-12T16:23:31.019Z,14.70
2018-11-12T16:25:58.207Z,14.70
2018-11-12T16:28:25.502Z,14.70
2018-11-12T16:31:07.615Z,14.70
2018-11-12T16:33:34.830Z,14.60
2018-11-12T16:36:02.095Z,14.60
2018-11-12T16:38:29.247Z,14.50
2018-11-12T16:40:56.485Z,14.50
2018-11-12T16:43:23.771Z,14.50
2018-11-12T16:45:51.004Z,14.50
2018-11-12T16:48:19.364Z,14.60
2018-11-12T16:50:46.724Z,14.80
2018-11-12T16:53:13.983Z,14.90
2018-11-12T16:55:41.148Z,15.10
2018-11-12T16:58:08.315Z,15.20
2018-11-12T17:00:35.530Z,15.20
2018-11-12T17:03:02.819Z,15.10
2018-11-12T17:05:30.062Z,15.00
2018-11-12T17:07:57.320Z,14.90
2018-11-12T17:10:25.550Z,14.80
2018-11-12T17:12:52.731Z,14.80
2018-11-12T17:15:19.911Z,14.80
2018-11-12T17:17:47.300Z,14.70
2018-11-12T17:20:15.798Z,14.70
2018-11-12T17:22:43.042Z,14.70
2018-11-12T17:25:11.522Z,14.70
2018-11-12T17:27:38.684Z,14.60
2018-11-12T17:30:15.915Z,14.60
2018-11-12T17:32:43.540Z,14.50
2018-11-12T17:35:12.311Z,14.50
2018-11-12T17:37:40.509Z,14.50
2018-11-12T17:40:10.929Z,14.50
2018-11-12T17:42:38.083Z,14.50
2018-11-12T17:45:08.355Z,14.50
2018-11-12T17:47:35.512Z,14.50
2018-11-12T17:50:02.847Z,14.60
2018-11-12T17:52:30.038Z,14.60
2018-11-12T17:54:57.182Z,14.60
2018-11-12T17:57:24.341Z,14.60
2018-11-12T17:59:52.549Z,14.70
2018-11-12T18:02:19.699Z,14.70
2018-11-12T18:04:46.938Z,14.70
2018-11-12T18:07:14.138Z,14.70
2018-11-12T18:09:41.334Z,14.70
2018-11-12T18:12:08.467Z,14.70
2018-11-12T18:14:35.644Z,14.70
2018-11-12T18:17:02.837Z,14.70
2018-11-12T18:19:29.983Z,14.70
2018-11-12T18:23:21.849Z,14.70
2018-11-12T18:25:49.026Z,14.70
2018-11-12T18:28:16.216Z,14.80
2018-11-12T18:30:43.531Z,14.80
2018-11-12T18:33:10.567Z,14.90
2018-11-12T18:35:37.831Z,14.80
2018-11-12T18:38:05.315Z,14.80
2018-11-12T18:40:32.426Z,14.80
2018-11-12T18:42:59.585Z,14.70
2018-11-12T18:45:27.335Z,14.80
2018-11-12T18:47:54.784Z,14.80
2018-11-12T18:50:23.339Z,14.80
2018-11-12T18:52:50.573Z,14.90
2018-11-12T18:55:17.784Z,15.00
2018-11-12T18:57:45.865Z,15.10
2018-11-12T19:00:14.552Z,15.10
2018-11-12T19:05:17.503Z,15.20
2018-11-12T19:07:45.907Z,15.40
2018-11-12T19:10:16.789Z,15.60
2018-11-12T19:12:44.708Z,15.60
2018-11-12T19:15:14.137Z,15.60
2018-11-12T19:17:42.099Z,15.50
2018-11-12T19:20:09.455Z,15.50
2018-11-12T19:22:36.708Z,15.40
2018-11-12T19:25:04.856Z,15.40
2018-11-12T19:27:32.028Z,15.30
2018-11-12T19:29:59.483Z,15.30
2018-11-12T19:32:27.241Z,15.30
2018-11-12T19:34:54.400Z,15.30
2018-11-12T19:37:21.579Z,15.30
2018-11-12T19:39:48.753Z,15.20
2018-11-12T19:42:17.467Z,15.30
2018-11-12T19:44:44.991Z,15.30
2018-11-12T19:47:12.208Z,15.20
2018-11-12T19:49:39.348Z,15.30
2018-11-12T19:52:06.603Z,15.30
2018-11-12T19:54:33.761Z,15.30
2018-11-12T19:57:01.168Z,15.30
2018-11-12T19:59:28.428Z,15.40
2018-11-12T20:01:55.698Z,15.40
2018-11-12T20:04:22.898Z,15.30
2018-11-12T20:06:50.095Z,15.30
2018-11-12T20:09:17.378Z,15.30
2018-11-12T20:11:44.599Z,15.30
2018-11-12T20:17:43.990Z,15.30
2018-11-12T20:20:13.895Z,15.30
2018-11-12T20:22:41.224Z,15.20
2018-11-12T20:25:10.125Z,15.30
2018-11-12T20:27:37.364Z,15.30
2018-11-12T20:30:07.483Z,15.30
2018-11-12T20:32:34.784Z,15.30
2018-11-12T20:35:01.858Z,15.30
2018-11-12T20:37:29.085Z,15.30
2018-11-12T20:39:56.284Z,15.20
2018-11-12T20:42:23.472Z,15.20
2018-11-12T20:44:50.645Z,15.20
2018-11-12T20:47:17.839Z,15.20
2018-11-12T20:49:45.045Z,15.20
2018-11-12T20:52:12.287Z,15.10
2018-11-12T20:54:39.473Z,15.10
2018-11-12T20:57:06.728Z,15.20
2018-11-12T20:59:33.973Z,15.10
2018-11-12T21:02:01.136Z,15.20
2018-11-12T21:04:28.388Z,15.20
2018-11-12T21:06:55.645Z,15.20
2018-11-12T21:09:22.948Z,15.10
2018-11-12T21:11:50.112Z,15.20
2018-11-12T21:14:17.399Z,15.20
2018-11-12T21:16:44.563Z,15.20
2018-11-12T21:19:11.791Z,15.10
2018-11-12T21:21:38.955Z,15.10
2018-11-12T21:24:06.200Z,15.10
2018-11-12T21:26:33.754Z,15.10
2018-11-12T21:29:01.013Z,15.00
2018-11-12T21:31:28.103Z,15.00
2018-11-12T21:33:55.395Z,15.00
2018-11-12T21:36:22.671Z,15.00
2018-11-12T21:38:49.839Z,15.00
2018-11-12T21:41:17.013Z,15.00
2018-11-12T21:43:44.444Z,15.00
2018-11-12T21:46:11.408Z,15.00
2018-11-12T21:48:38.551Z,15.00
2018-11-12T21:51:05.775Z,15.00
2018-11-12T21:53:32.911Z,15.00
2018-11-12T21:56:00.156Z,15.00
2018-11-12T21:58:27.374Z,15.00
2018-11-12T22:00:54.503Z,15.00
2018-11-12T22:03:21.673Z,15.00
2018-11-12T22:05:48.852Z,15.00
2018-11-12T22:08:16.052Z,15.00
2018-11-12T22:10:43.211Z,15.00
2018-11-12T22:13:10.379Z,15.00
2018-11-12T22:15:37.531Z,14.90
2018-11-12T22:18:05.491Z,14.90
2018-11-12T22:20:32.653Z,14.90
2018-11-12T22:22:59.896Z,14.80
2018-11-12T22:25:27.188Z,14.90
2018-11-12T22:27:54.622Z,14.90
2018-11-12T22:30:23.114Z,14.90
2018-11-12T22:32:51.372Z,14.90
2018-11-12T22:35:18.596Z,14.90
2018-11-12T22:37:46.141Z,14.90
2018-11-12T22:40:14.159Z,14.80
2018-11-12T22:42:42.140Z,14.90
2018-11-12T22:45:11.214Z,14.90
2018-11-12T22:47:38.399Z,14.90
2018-11-12T22:50:06.692Z,14.90
2018-11-12T22:52:34.076Z,14.90
2018-11-12T22:55:01.229Z,15.00
2018-11-12T22:57:28.396Z,15.00
2018-11-12T22:59:55.632Z,15.00
2018-11-12T23:02:22.757Z,15.00
2018-11-12T23:04:49.935Z,14.90
2018-11-12T23:07:17.121Z,14.90
2018-11-12T23:09:44.266Z,14.90
2018-11-12T23:12:11.437Z,14.90
2018-11-12T23:14:38.598Z,14.80
2018-11-12T23:17:05.784Z,14.80
2018-11-12T23:19:32.999Z,14.70
2018-11-12T23:22:00.152Z,14.70
2018-11-12T23:24:27.332Z,14.60
2018-11-12T23:26:54.577Z,14.50
2018-11-12T23:29:21.739Z,14.50
2018-11-12T23:31:48.895Z,14.50
2018-11-12T23:34:16.056Z,14.40
2018-11-12T23:36:43.228Z,14.50
2018-11-12T23:39:10.379Z,14.50
2018-11-12T23:41:37.658Z,14.50
2018-11-12T23:44:04.983Z,14.40
2018-11-12T23:46:32.158Z,14.30
2018-11-12T23:48:59.311Z,14.20
2018-11-12T23:51:26.480Z,14.20
2018-11-12T23:53:53.644Z,14.30
2018-11-12T23:58:54.862Z,14.20
